CYKL

Schefferville Airport

Schefferville, Quebec, Canada
METAR CYKL 241200Z AUTO 33004KT 9SM CLR M27/M30 A2961 RMK SLP086
Observed Flight Rules
Feb-24 @ 12:00 UTC (20 minutes ago) Visual Flight Rules
Wind Visibility Clouds
330° at 4 knots 9 miles
  • Clear skies
Temperatures Readings
Current -27°C / -17°F
Dewpoint -30°C / -22°F
Humidity 76%
Altimeter 29.61" Hg
Pressure 1008.6 hPa
Elevation 521
METAR CYKL 241200Z AUTO 33004KT 9SM CLR M27/M30 A2961 RMK SLP086
Observed Flight Rules
Feb-24 @ 12:00 UTC
(20 minutes ago)
VFR
Wind Visibility
330° at 4 knots 9 miles
Clouds
  • Clear skies
Temperature Dewpoint
-27°C / -17°F -30°C / -22°F
Humidity Altimeter Pressure
76% 29.61" Hg 1008.6 hPa